sensor_id;sensor_type;location;lat;lon;timestamp;P1;durP1;ratioP1;P2;durP2;ratioP2
67904;SDS011;54709;43.614;1.576;2023-11-18T00:01:02;18.52;;;9.82;;
67904;SDS011;54709;43.614;1.576;2023-11-18T00:03:28;16.85;;;10.00;;
67904;SDS011;54709;43.614;1.576;2023-11-18T00:05:53;20.48;;;9.85;;
67904;SDS011;54709;43.614;1.576;2023-11-18T00:08:19;18.67;;;9.95;;
67904;SDS011;54709;43.614;1.576;2023-11-18T00:10:44;13.82;;;8.85;;
67904;SDS011;54709;43.614;1.576;2023-11-18T00:13:10;17.50;;;9.32;;
67904;SDS011;54709;43.614;1.576;2023-11-18T00:15:35;16.55;;;9.52;;
67904;SDS011;54709;43.614;1.576;2023-11-18T00:18:01;16.55;;;10.18;;
67904;SDS011;54709;43.614;1.576;2023-11-18T00:20:26;14.85;;;10.13;;
67904;SDS011;54709;43.614;1.576;2023-11-18T00:22:51;15.88;;;9.70;;
67904;SDS011;54709;43.614;1.576;2023-11-18T00:25:18;19.23;;;10.38;;
67904;SDS011;54709;43.614;1.576;2023-11-18T00:27:43;16.27;;;10.32;;
67904;SDS011;54709;43.614;1.576;2023-11-18T00:30:09;18.83;;;10.13;;
67904;SDS011;54709;43.614;1.576;2023-11-18T00:32:36;16.80;;;9.95;;
67904;SDS011;54709;43.614;1.576;2023-11-18T00:35:01;13.63;;;9.50;;
67904;SDS011;54709;43.614;1.576;2023-11-18T00:37:29;13.02;;;9.52;;
67904;SDS011;54709;43.614;1.576;2023-11-18T00:39:55;16.88;;;9.40;;
67904;SDS011;54709;43.614;1.576;2023-11-18T00:42:21;15.75;;;9.88;;
67904;SDS011;54709;43.614;1.576;2023-11-18T00:44:46;14.65;;;10.10;;
67904;SDS011;54709;43.614;1.576;2023-11-18T00:47:12;15.35;;;10.23;;
67904;SDS011;54709;43.614;1.576;2023-11-18T00:49:38;14.23;;;9.63;;
67904;SDS011;54709;43.614;1.576;2023-11-18T00:52:03;15.13;;;9.60;;
67904;SDS011;54709;43.614;1.576;2023-11-18T00:54:29;15.48;;;10.20;;
67904;SDS011;54709;43.614;1.576;2023-11-18T00:56:55;17.30;;;9.95;;
67904;SDS011;54709;43.614;1.576;2023-11-18T00:59:20;16.15;;;9.80;;
67904;SDS011;54709;43.614;1.576;2023-11-18T01:01:46;16.60;;;9.65;;
67904;SDS011;54709;43.614;1.576;2023-11-18T01:04:11;16.58;;;9.95;;
67904;SDS011;54709;43.614;1.576;2023-11-18T01:06:37;15.55;;;9.73;;
67904;SDS011;54709;43.614;1.576;2023-11-18T01:09:02;15.10;;;9.93;;
67904;SDS011;54709;43.614;1.576;2023-11-18T01:11:28;15.73;;;10.27;;
67904;SDS011;54709;43.614;1.576;2023-11-18T01:13:54;14.95;;;9.68;;
67904;SDS011;54709;43.614;1.576;2023-11-18T01:16:19;13.50;;;9.25;;
67904;SDS011;54709;43.614;1.576;2023-11-18T01:18:45;15.18;;;10.60;;
67904;SDS011;54709;43.614;1.576;2023-11-18T01:21:10;18.90;;;10.88;;
67904;SDS011;54709;43.614;1.576;2023-11-18T01:23:36;15.77;;;10.30;;
67904;SDS011;54709;43.614;1.576;2023-11-18T01:26:02;19.85;;;10.43;;
67904;SDS011;54709;43.614;1.576;2023-11-18T01:28:30;17.70;;;10.13;;
67904;SDS011;54709;43.614;1.576;2023-11-18T01:30:58;15.95;;;10.38;;
67904;SDS011;54709;43.614;1.576;2023-11-18T01:33:23;14.38;;;9.60;;
67904;SDS011;54709;43.614;1.576;2023-11-18T01:35:50;13.77;;;9.48;;
67904;SDS011;54709;43.614;1.576;2023-11-18T01:38:15;16.23;;;9.43;;
67904;SDS011;54709;43.614;1.576;2023-11-18T01:40:40;14.68;;;9.88;;
67904;SDS011;54709;43.614;1.576;2023-11-18T01:43:08;14.48;;;9.27;;
67904;SDS011;54709;43.614;1.576;2023-11-18T01:45:37;14.10;;;9.18;;
67904;SDS011;54709;43.614;1.576;2023-11-18T01:48:02;15.05;;;9.32;;
67904;SDS011;54709;43.614;1.576;2023-11-18T01:50:28;16.27;;;9.45;;
67904;SDS011;54709;43.614;1.576;2023-11-18T01:52:54;14.00;;;9.32;;
67904;SDS011;54709;43.614;1.576;2023-11-18T01:55:20;13.88;;;9.52;;
67904;SDS011;54709;43.614;1.576;2023-11-18T01:57:46;14.13;;;9.23;;
67904;SDS011;54709;43.614;1.576;2023-11-18T02:00:12;16.10;;;9.55;;
67904;SDS011;54709;43.614;1.576;2023-11-18T02:02:37;13.95;;;9.25;;
67904;SDS011;54709;43.614;1.576;2023-11-18T02:05:03;14.80;;;9.25;;
67904;SDS011;54709;43.614;1.576;2023-11-18T02:07:31;18.27;;;9.77;;
67904;SDS011;54709;43.614;1.576;2023-11-18T02:09:58;14.75;;;9.57;;
67904;SDS011;54709;43.614;1.576;2023-11-18T02:14:52;14.57;;;9.75;;
67904;SDS011;54709;43.614;1.576;2023-11-18T02:17:20;14.68;;;9.45;;
67904;SDS011;54709;43.614;1.576;2023-11-18T02:19:49;15.43;;;9.18;;
67904;SDS011;54709;43.614;1.576;2023-11-18T02:22:16;14.43;;;9.57;;
67904;SDS011;54709;43.614;1.576;2023-11-18T02:24:41;11.90;;;9.70;;
67904;SDS011;54709;43.614;1.576;2023-11-18T02:27:07;16.70;;;9.82;;
67904;SDS011;54709;43.614;1.576;2023-11-18T02:29:36;13.25;;;9.30;;
67904;SDS011;54709;43.614;1.576;2023-11-18T02:32:50;14.73;;;9.43;;
67904;SDS011;54709;43.614;1.576;2023-11-18T02:34:55;16.45;;;9.32;;
67904;SDS011;54709;43.614;1.576;2023-11-18T02:37:23;17.10;;;9.63;;
67904;SDS011;54709;43.614;1.576;2023-11-18T02:39:52;13.55;;;9.77;;
67904;SDS011;54709;43.614;1.576;2023-11-18T02:42:19;14.15;;;9.13;;
67904;SDS011;54709;43.614;1.576;2023-11-18T02:44:46;13.80;;;9.15;;
67904;SDS011;54709;43.614;1.576;2023-11-18T02:47:14;14.55;;;9.25;;
67904;SDS011;54709;43.614;1.576;2023-11-18T02:49:41;12.23;;;9.00;;
67904;SDS011;54709;43.614;1.576;2023-11-18T02:52:06;16.27;;;8.63;;
67904;SDS011;54709;43.614;1.576;2023-11-18T02:54:34;12.00;;;8.65;;
67904;SDS011;54709;43.614;1.576;2023-11-18T02:57:00;15.48;;;8.90;;
67904;SDS011;54709;43.614;1.576;2023-11-18T02:59:25;15.77;;;9.07;;
67904;SDS011;54709;43.614;1.576;2023-11-18T03:01:54;13.60;;;8.18;;
67904;SDS011;54709;43.614;1.576;2023-11-18T03:04:20;12.65;;;8.07;;
67904;SDS011;54709;43.614;1.576;2023-11-18T03:06:45;11.55;;;7.53;;
67904;SDS011;54709;43.614;1.576;2023-11-18T03:09:10;14.43;;;7.82;;
67904;SDS011;54709;43.614;1.576;2023-11-18T03:11:36;14.40;;;8.02;;
67904;SDS011;54709;43.614;1.576;2023-11-18T03:14:01;12.00;;;7.82;;
67904;SDS011;54709;43.614;1.576;2023-11-18T03:16:29;13.25;;;7.35;;
67904;SDS011;54709;43.614;1.576;2023-11-18T03:18:55;13.20;;;7.53;;
67904;SDS011;54709;43.614;1.576;2023-11-18T03:21:20;11.00;;;7.38;;
67904;SDS011;54709;43.614;1.576;2023-11-18T03:23:46;13.98;;;8.02;;
67904;SDS011;54709;43.614;1.576;2023-11-18T03:26:11;12.23;;;7.00;;
67904;SDS011;54709;43.614;1.576;2023-11-18T03:28:37;11.77;;;7.28;;
67904;SDS011;54709;43.614;1.576;2023-11-18T03:31:05;11.82;;;6.90;;
67904;SDS011;54709;43.614;1.576;2023-11-18T03:33:31;11.48;;;7.00;;
67904;SDS011;54709;43.614;1.576;2023-11-18T03:35:57;12.77;;;6.55;;
67904;SDS011;54709;43.614;1.576;2023-11-18T03:38:23;9.35;;;6.47;;
67904;SDS011;54709;43.614;1.576;2023-11-18T03:40:49;11.00;;;6.25;;
67904;SDS011;54709;43.614;1.576;2023-11-18T03:43:14;10.52;;;6.50;;
67904;SDS011;54709;43.614;1.576;2023-11-18T03:45:40;9.85;;;6.20;;
67904;SDS011;54709;43.614;1.576;2023-11-18T03:48:05;10.55;;;6.80;;
67904;SDS011;54709;43.614;1.576;2023-11-18T03:50:32;9.13;;;6.05;;
67904;SDS011;54709;43.614;1.576;2023-11-18T03:53:00;11.95;;;6.68;;
67904;SDS011;54709;43.614;1.576;2023-11-18T03:55:26;11.23;;;6.75;;
67904;SDS011;54709;43.614;1.576;2023-11-18T03:57:52;14.00;;;7.15;;
67904;SDS011;54709;43.614;1.576;2023-11-18T04:00:17;12.85;;;7.00;;
67904;SDS011;54709;43.614;1.576;2023-11-18T04:02:44;11.50;;;7.00;;
67904;SDS011;54709;43.614;1.576;2023-11-18T04:05:11;14.65;;;7.40;;
67904;SDS011;54709;43.614;1.576;2023-11-18T04:07:36;15.00;;;7.07;;
67904;SDS011;54709;43.614;1.576;2023-11-18T04:10:02;18.27;;;7.60;;
67904;SDS011;54709;43.614;1.576;2023-11-18T04:12:27;15.43;;;7.75;;
67904;SDS011;54709;43.614;1.576;2023-11-18T04:14:52;14.60;;;8.75;;
67904;SDS011;54709;43.614;1.576;2023-11-18T04:17:18;14.27;;;8.43;;
67904;SDS011;54709;43.614;1.576;2023-11-18T04:19:43;13.48;;;9.07;;
67904;SDS011;54709;43.614;1.576;2023-11-18T04:22:08;14.15;;;8.25;;
67904;SDS011;54709;43.614;1.576;2023-11-18T04:24:34;11.85;;;8.68;;
67904;SDS011;54709;43.614;1.576;2023-11-18T04:27:00;13.57;;;8.88;;
67904;SDS011;54709;43.614;1.576;2023-11-18T04:29:26;12.15;;;8.43;;
67904;SDS011;54709;43.614;1.576;2023-11-18T04:31:51;13.40;;;8.18;;
67904;SDS011;54709;43.614;1.576;2023-11-18T04:34:18;14.13;;;8.50;;
67904;SDS011;54709;43.614;1.576;2023-11-18T04:36:44;15.32;;;8.25;;
67904;SDS011;54709;43.614;1.576;2023-11-18T04:39:09;13.75;;;7.68;;
67904;SDS011;54709;43.614;1.576;2023-11-18T04:41:36;12.48;;;8.32;;
67904;SDS011;54709;43.614;1.576;2023-11-18T04:44:02;12.90;;;8.55;;
67904;SDS011;54709;43.614;1.576;2023-11-18T04:46:28;11.30;;;7.82;;
67904;SDS011;54709;43.614;1.576;2023-11-18T04:48:53;10.52;;;7.60;;
67904;SDS011;54709;43.614;1.576;2023-11-18T04:51:19;10.00;;;7.03;;
67904;SDS011;54709;43.614;1.576;2023-11-18T04:53:46;13.23;;;7.53;;
67904;SDS011;54709;43.614;1.576;2023-11-18T04:56:11;12.52;;;7.47;;
67904;SDS011;54709;43.614;1.576;2023-11-18T04:58:38;14.63;;;8.40;;
67904;SDS011;54709;43.614;1.576;2023-11-18T05:01:04;11.48;;;7.65;;
67904;SDS011;54709;43.614;1.576;2023-11-18T05:03:30;13.13;;;8.10;;
67904;SDS011;54709;43.614;1.576;2023-11-18T05:05:55;12.57;;;8.30;;
67904;SDS011;54709;43.614;1.576;2023-11-18T05:08:21;13.18;;;8.98;;
67904;SDS011;54709;43.614;1.576;2023-11-18T05:10:47;15.77;;;9.45;;
67904;SDS011;54709;43.614;1.576;2023-11-18T05:13:12;10.32;;;8.40;;
67904;SDS011;54709;43.614;1.576;2023-11-18T05:15:41;14.07;;;8.52;;
67904;SDS011;54709;43.614;1.576;2023-11-18T05:18:07;12.25;;;8.52;;
67904;SDS011;54709;43.614;1.576;2023-11-18T05:20:36;10.52;;;7.75;;
67904;SDS011;54709;43.614;1.576;2023-11-18T05:23:02;16.30;;;8.55;;
67904;SDS011;54709;43.614;1.576;2023-11-18T05:25:28;12.13;;;8.30;;
67904;SDS011;54709;43.614;1.576;2023-11-18T05:27:53;12.77;;;8.10;;
67904;SDS011;54709;43.614;1.576;2023-11-18T05:30:19;13.25;;;8.20;;
67904;SDS011;54709;43.614;1.576;2023-11-18T05:32:44;13.65;;;8.32;;
67904;SDS011;54709;43.614;1.576;2023-11-18T05:35:10;13.93;;;8.45;;
67904;SDS011;54709;43.614;1.576;2023-11-18T05:37:37;11.77;;;8.32;;
67904;SDS011;54709;43.614;1.576;2023-11-18T05:40:03;13.48;;;7.53;;
67904;SDS011;54709;43.614;1.576;2023-11-18T05:42:35;14.27;;;7.82;;
67904;SDS011;54709;43.614;1.576;2023-11-18T05:45:02;12.80;;;7.40;;
67904;SDS011;54709;43.614;1.576;2023-11-18T05:47:29;12.63;;;7.80;;
67904;SDS011;54709;43.614;1.576;2023-11-18T05:49:54;13.05;;;8.20;;
67904;SDS011;54709;43.614;1.576;2023-11-18T05:52:20;13.75;;;8.57;;
67904;SDS011;54709;43.614;1.576;2023-11-18T05:54:46;12.18;;;8.32;;
67904;SDS011;54709;43.614;1.576;2023-11-18T05:57:15;14.80;;;8.43;;
67904;SDS011;54709;43.614;1.576;2023-11-18T05:59:41;13.75;;;8.30;;
67904;SDS011;54709;43.614;1.576;2023-11-18T06:02:07;12.60;;;8.55;;
67904;SDS011;54709;43.614;1.576;2023-11-18T06:04:33;12.85;;;8.48;;
67904;SDS011;54709;43.614;1.576;2023-11-18T06:06:58;14.40;;;8.63;;
67904;SDS011;54709;43.614;1.576;2023-11-18T06:09:24;14.00;;;7.75;;
67904;SDS011;54709;43.614;1.576;2023-11-18T06:11:53;12.25;;;8.13;;
67904;SDS011;54709;43.614;1.576;2023-11-18T06:14:19;12.93;;;7.78;;
67904;SDS011;54709;43.614;1.576;2023-11-18T06:16:46;14.25;;;7.65;;
67904;SDS011;54709;43.614;1.576;2023-11-18T06:19:12;14.48;;;7.53;;
67904;SDS011;54709;43.614;1.576;2023-11-18T06:21:38;14.73;;;7.88;;
67904;SDS011;54709;43.614;1.576;2023-11-18T06:24:04;11.82;;;7.80;;
67904;SDS011;54709;43.614;1.576;2023-11-18T06:26:31;15.07;;;8.27;;
67904;SDS011;54709;43.614;1.576;2023-11-18T06:28:56;11.68;;;7.38;;
67904;SDS011;54709;43.614;1.576;2023-11-18T06:31:22;13.15;;;7.70;;
67904;SDS011;54709;43.614;1.576;2023-11-18T06:33:49;12.65;;;7.40;;
67904;SDS011;54709;43.614;1.576;2023-11-18T06:38:42;15.88;;;7.38;;
67904;SDS011;54709;43.614;1.576;2023-11-18T06:41:09;13.43;;;7.55;;
67904;SDS011;54709;43.614;1.576;2023-11-18T06:43:36;12.30;;;7.32;;
67904;SDS011;54709;43.614;1.576;2023-11-18T06:46:20;12.57;;;6.97;;
67904;SDS011;54709;43.614;1.576;2023-11-18T06:48:47;10.48;;;7.05;;
67904;SDS011;54709;43.614;1.576;2023-11-18T06:51:15;11.18;;;6.75;;
67904;SDS011;54709;43.614;1.576;2023-11-18T06:53:41;11.55;;;6.90;;
67904;SDS011;54709;43.614;1.576;2023-11-18T06:56:10;11.57;;;6.95;;
67904;SDS011;54709;43.614;1.576;2023-11-18T06:58:37;12.90;;;7.25;;
67904;SDS011;54709;43.614;1.576;2023-11-18T07:01:05;10.07;;;6.70;;
67904;SDS011;54709;43.614;1.576;2023-11-18T07:03:31;11.68;;;6.80;;
67904;SDS011;54709;43.614;1.576;2023-11-18T07:05:57;9.30;;;6.55;;
67904;SDS011;54709;43.614;1.576;2023-11-18T07:08:22;12.15;;;6.68;;
67904;SDS011;54709;43.614;1.576;2023-11-18T07:10:47;13.15;;;6.82;;
67904;SDS011;54709;43.614;1.576;2023-11-18T07:13:13;13.52;;;6.57;;
67904;SDS011;54709;43.614;1.576;2023-11-18T07:15:39;11.43;;;6.85;;
67904;SDS011;54709;43.614;1.576;2023-11-18T07:18:04;15.60;;;7.70;;
67904;SDS011;54709;43.614;1.576;2023-11-18T07:20:29;13.68;;;6.93;;
67904;SDS011;54709;43.614;1.576;2023-11-18T07:22:55;14.32;;;7.18;;
67904;SDS011;54709;43.614;1.576;2023-11-18T07:25:20;10.38;;;6.78;;
67904;SDS011;54709;43.614;1.576;2023-11-18T07:27:46;15.50;;;7.40;;
67904;SDS011;54709;43.614;1.576;2023-11-18T07:30:11;12.73;;;7.15;;
67904;SDS011;54709;43.614;1.576;2023-11-18T07:32:37;14.27;;;7.15;;
67904;SDS011;54709;43.614;1.576;2023-11-18T07:35:03;13.90;;;7.32;;
67904;SDS011;54709;43.614;1.576;2023-11-18T07:37:33;14.38;;;7.30;;
67904;SDS011;54709;43.614;1.576;2023-11-18T07:39:59;12.23;;;7.13;;
67904;SDS011;54709;43.614;1.576;2023-11-18T07:42:25;14.68;;;8.13;;
67904;SDS011;54709;43.614;1.576;2023-11-18T07:44:51;14.65;;;8.20;;
67904;SDS011;54709;43.614;1.576;2023-11-18T07:47:16;16.27;;;8.05;;
67904;SDS011;54709;43.614;1.576;2023-11-18T07:49:42;16.77;;;8.27;;
67904;SDS011;54709;43.614;1.576;2023-11-18T07:52:07;15.35;;;7.97;;
67904;SDS011;54709;43.614;1.576;2023-11-18T07:54:32;9.93;;;7.32;;
67904;SDS011;54709;43.614;1.576;2023-11-18T07:56:58;11.40;;;6.78;;
67904;SDS011;54709;43.614;1.576;2023-11-18T07:59:23;14.05;;;7.28;;
67904;SDS011;54709;43.614;1.576;2023-11-18T08:01:49;19.52;;;8.18;;
67904;SDS011;54709;43.614;1.576;2023-11-18T08:04:15;14.82;;;6.47;;
67904;SDS011;54709;43.614;1.576;2023-11-18T08:06:40;11.50;;;6.68;;
67904;SDS011;54709;43.614;1.576;2023-11-18T08:09:08;21.17;;;6.82;;
67904;SDS011;54709;43.614;1.576;2023-11-18T08:11:37;12.93;;;6.50;;
67904;SDS011;54709;43.614;1.576;2023-11-18T08:14:02;12.73;;;6.53;;
67904;SDS011;54709;43.614;1.576;2023-11-18T08:16:28;15.40;;;6.40;;
67904;SDS011;54709;43.614;1.576;2023-11-18T08:18:54;10.50;;;5.57;;
67904;SDS011;54709;43.614;1.576;2023-11-18T08:21:20;8.75;;;5.00;;
67904;SDS011;54709;43.614;1.576;2023-11-18T08:23:47;14.10;;;5.30;;
67904;SDS011;54709;43.614;1.576;2023-11-18T08:26:12;10.45;;;5.05;;
67904;SDS011;54709;43.614;1.576;2023-11-18T08:28:38;9.00;;;4.90;;
67904;SDS011;54709;43.614;1.576;2023-11-18T08:31:03;7.65;;;4.53;;
67904;SDS011;54709;43.614;1.576;2023-11-18T08:33:30;9.00;;;4.15;;
67904;SDS011;54709;43.614;1.576;2023-11-18T08:35:55;8.32;;;3.67;;
67904;SDS011;54709;43.614;1.576;2023-11-18T08:38:21;11.55;;;3.95;;
67904;SDS011;54709;43.614;1.576;2023-11-18T08:40:47;11.45;;;4.35;;
67904;SDS011;54709;43.614;1.576;2023-11-18T08:43:13;8.50;;;4.00;;
67904;SDS011;54709;43.614;1.576;2023-11-18T08:45:41;7.82;;;3.55;;
67904;SDS011;54709;43.614;1.576;2023-11-18T08:48:06;10.43;;;3.65;;
67904;SDS011;54709;43.614;1.576;2023-11-18T08:50:33;6.10;;;3.00;;
67904;SDS011;54709;43.614;1.576;2023-11-18T08:53:02;9.98;;;3.70;;
67904;SDS011;54709;43.614;1.576;2023-11-18T08:55:30;7.95;;;3.28;;
67904;SDS011;54709;43.614;1.576;2023-11-18T08:58:16;8.10;;;2.97;;
67904;SDS011;54709;43.614;1.576;2023-11-18T09:00:57;6.18;;;3.35;;
67904;SDS011;54709;43.614;1.576;2023-11-18T09:03:38;10.60;;;3.55;;
67904;SDS011;54709;43.614;1.576;2023-11-18T09:06:08;10.57;;;2.92;;
67904;SDS011;54709;43.614;1.576;2023-11-18T09:08:42;7.63;;;2.63;;
67904;SDS011;54709;43.614;1.576;2023-11-18T09:11:10;7.93;;;2.88;;
67904;SDS011;54709;43.614;1.576;2023-11-18T09:13:45;5.43;;;2.65;;
67904;SDS011;54709;43.614;1.576;2023-11-18T09:16:15;9.23;;;2.88;;
67904;SDS011;54709;43.614;1.576;2023-11-18T09:18:41;8.20;;;2.80;;
67904;SDS011;54709;43.614;1.576;2023-11-18T09:21:10;7.15;;;2.60;;
67904;SDS011;54709;43.614;1.576;2023-11-18T09:23:48;9.23;;;2.90;;
67904;SDS011;54709;43.614;1.576;2023-11-18T09:26:13;5.13;;;2.10;;
67904;SDS011;54709;43.614;1.576;2023-11-18T09:28:39;5.43;;;2.17;;
67904;SDS011;54709;43.614;1.576;2023-11-18T09:31:05;4.75;;;2.22;;
67904;SDS011;54709;43.614;1.576;2023-11-18T09:33:31;5.30;;;2.17;;
67904;SDS011;54709;43.614;1.576;2023-11-18T09:36:03;6.93;;;2.08;;
67904;SDS011;54709;43.614;1.576;2023-11-18T09:38:33;5.40;;;1.70;;
67904;SDS011;54709;43.614;1.576;2023-11-18T09:41:00;5.10;;;1.60;;
67904;SDS011;54709;43.614;1.576;2023-11-18T09:43:28;5.47;;;1.52;;
67904;SDS011;54709;43.614;1.576;2023-11-18T09:46:20;5.95;;;1.40;;
67904;SDS011;54709;43.614;1.576;2023-11-18T09:48:52;4.70;;;1.42;;
67904;SDS011;54709;43.614;1.576;2023-11-18T09:51:43;3.10;;;1.70;;
67904;SDS011;54709;43.614;1.576;2023-11-18T09:54:16;6.40;;;1.70;;
67904;SDS011;54709;43.614;1.576;2023-11-18T10:02:45;2.33;;;1.10;;
67904;SDS011;54709;43.614;1.576;2023-11-18T10:05:12;4.72;;;1.10;;
67904;SDS011;54709;43.614;1.576;2023-11-18T10:07:41;6.05;;;1.38;;
67904;SDS011;54709;43.614;1.576;2023-11-18T10:10:10;4.18;;;1.13;;
67904;SDS011;54709;43.614;1.576;2023-11-18T10:12:46;4.05;;;1.20;;
67904;SDS011;54709;43.614;1.576;2023-11-18T10:15:23;5.32;;;2.35;;
67904;SDS011;54709;43.614;1.576;2023-11-18T10:17:49;10.35;;;4.55;;
67904;SDS011;54709;43.614;1.576;2023-11-18T10:23:12;12.05;;;6.72;;
67904;SDS011;54709;43.614;1.576;2023-11-18T10:25:47;11.48;;;5.45;;
67904;SDS011;54709;43.614;1.576;2023-11-18T10:30:56;11.48;;;6.25;;
67904;SDS011;54709;43.614;1.576;2023-11-18T10:33:28;15.77;;;9.35;;
67904;SDS011;54709;43.614;1.576;2023-11-18T10:35:57;16.63;;;8.48;;
67904;SDS011;54709;43.614;1.576;2023-11-18T10:38:23;10.65;;;5.90;;
67904;SDS011;54709;43.614;1.576;2023-11-18T10:40:53;5.88;;;3.55;;
67904;SDS011;54709;43.614;1.576;2023-11-18T10:43:20;12.60;;;5.22;;
67904;SDS011;54709;43.614;1.576;2023-11-18T10:46:06;7.10;;;3.28;;
67904;SDS011;54709;43.614;1.576;2023-11-18T10:48:42;9.45;;;3.25;;
67904;SDS011;54709;43.614;1.576;2023-11-18T10:51:21;7.63;;;3.30;;
67904;SDS011;54709;43.614;1.576;2023-11-18T10:53:51;4.90;;;2.70;;
67904;SDS011;54709;43.614;1.576;2023-11-18T10:56:23;5.28;;;2.60;;
67904;SDS011;54709;43.614;1.576;2023-11-18T10:58:53;4.65;;;2.40;;
67904;SDS011;54709;43.614;1.576;2023-11-18T11:01:28;5.60;;;2.40;;
67904;SDS011;54709;43.614;1.576;2023-11-18T11:03:54;5.85;;;2.25;;
67904;SDS011;54709;43.614;1.576;2023-11-18T11:06:26;8.15;;;2.65;;
67904;SDS011;54709;43.614;1.576;2023-11-18T11:08:55;7.25;;;2.20;;
67904;SDS011;54709;43.614;1.576;2023-11-18T11:11:24;4.78;;;2.55;;
67904;SDS011;54709;43.614;1.576;2023-11-18T11:13:57;4.57;;;2.30;;
67904;SDS011;54709;43.614;1.576;2023-11-18T11:16:33;3.40;;;1.90;;
67904;SDS011;54709;43.614;1.576;2023-11-18T11:19:20;5.40;;;2.33;;
67904;SDS011;54709;43.614;1.576;2023-11-18T11:22:04;6.57;;;2.90;;
67904;SDS011;54709;43.614;1.576;2023-11-18T11:27:50;12.18;;;5.47;;
67904;SDS011;54709;43.614;1.576;2023-11-18T11:30:45;9.40;;;4.57;;
67904;SDS011;54709;43.614;1.576;2023-11-18T11:35:46;5.18;;;2.70;;
67904;SDS011;54709;43.614;1.576;2023-11-18T11:38:14;7.10;;;3.53;;
67904;SDS011;54709;43.614;1.576;2023-11-18T11:40:42;3.83;;;2.38;;
67904;SDS011;54709;43.614;1.576;2023-11-18T11:43:08;7.55;;;2.80;;
67904;SDS011;54709;43.614;1.576;2023-11-18T11:45:35;5.53;;;2.42;;
67904;SDS011;54709;43.614;1.576;2023-11-18T11:48:01;1.77;;;1.50;;
67904;SDS011;54709;43.614;1.576;2023-11-18T11:50:55;4.82;;;1.67;;
67904;SDS011;54709;43.614;1.576;2023-11-18T11:53:26;3.13;;;1.70;;
67904;SDS011;54709;43.614;1.576;2023-11-18T11:55:56;5.25;;;1.55;;
67904;SDS011;54709;43.614;1.576;2023-11-18T11:58:34;2.83;;;1.65;;
67904;SDS011;54709;43.614;1.576;2023-11-18T12:04:07;5.20;;;1.75;;
67904;SDS011;54709;43.614;1.576;2023-11-18T12:06:41;4.53;;;1.52;;
67904;SDS011;54709;43.614;1.576;2023-11-18T12:09:08;5.45;;;1.50;;
67904;SDS011;54709;43.614;1.576;2023-11-18T12:11:36;2.38;;;1.38;;
67904;SDS011;54709;43.614;1.576;2023-11-18T12:14:08;2.38;;;1.20;;
67904;SDS011;54709;43.614;1.576;2023-11-18T12:17:04;3.35;;;1.33;;
67904;SDS011;54709;43.614;1.576;2023-11-18T12:19:34;7.20;;;1.70;;
67904;SDS011;54709;43.614;1.576;2023-11-18T12:22:15;2.17;;;1.20;;
67904;SDS011;54709;43.614;1.576;2023-11-18T12:30:04;6.28;;;1.20;;
67904;SDS011;54709;43.614;1.576;2023-11-18T12:35:29;3.80;;;1.17;;
67904;SDS011;54709;43.614;1.576;2023-11-18T12:40:55;4.07;;;1.10;;
67904;SDS011;54709;43.614;1.576;2023-11-18T12:43:49;3.70;;;1.20;;
67904;SDS011;54709;43.614;1.576;2023-11-18T12:49:11;4.28;;;1.10;;
67904;SDS011;54709;43.614;1.576;2023-11-18T12:51:40;4.68;;;1.40;;
67904;SDS011;54709;43.614;1.576;2023-11-18T12:54:10;3.58;;;1.40;;
67904;SDS011;54709;43.614;1.576;2023-11-18T12:56:37;1.80;;;1.00;;
67904;SDS011;54709;43.614;1.576;2023-11-18T12:59:04;5.70;;;1.20;;
67904;SDS011;54709;43.614;1.576;2023-11-18T13:01:32;3.40;;;1.30;;
67904;SDS011;54709;43.614;1.576;2023-11-18T13:04:01;4.22;;;1.40;;
67904;SDS011;54709;43.614;1.576;2023-11-18T13:06:29;5.25;;;1.38;;
67904;SDS011;54709;43.614;1.576;2023-11-18T13:08:54;3.00;;;1.27;;
67904;SDS011;54709;43.614;1.576;2023-11-18T13:11:23;3.72;;;1.20;;
67904;SDS011;54709;43.614;1.576;2023-11-18T13:13:49;3.47;;;1.30;;
67904;SDS011;54709;43.614;1.576;2023-11-18T13:16:16;3.83;;;1.50;;
67904;SDS011;54709;43.614;1.576;2023-11-18T13:18:46;2.10;;;1.30;;
67904;SDS011;54709;43.614;1.576;2023-11-18T13:21:18;3.08;;;1.40;;
67904;SDS011;54709;43.614;1.576;2023-11-18T13:23:48;4.28;;;1.30;;
67904;SDS011;54709;43.614;1.576;2023-11-18T13:26:15;3.05;;;1.38;;
67904;SDS011;54709;43.614;1.576;2023-11-18T13:28:41;4.65;;;1.30;;
67904;SDS011;54709;43.614;1.576;2023-11-18T13:31:06;5.55;;;1.23;;
67904;SDS011;54709;43.614;1.576;2023-11-18T13:33:38;6.55;;;1.30;;
67904;SDS011;54709;43.614;1.576;2023-11-18T13:36:04;2.05;;;1.20;;
67904;SDS011;54709;43.614;1.576;2023-11-18T13:38:35;4.53;;;1.33;;
67904;SDS011;54709;43.614;1.576;2023-11-18T13:41:03;3.22;;;1.20;;
67904;SDS011;54709;43.614;1.576;2023-11-18T13:46:10;2.90;;;1.40;;
67904;SDS011;54709;43.614;1.576;2023-11-18T13:48:37;3.55;;;1.10;;
67904;SDS011;54709;43.614;1.576;2023-11-18T13:51:05;1.55;;;1.05;;
67904;SDS011;54709;43.614;1.576;2023-11-18T13:53:33;2.78;;;1.08;;
67904;SDS011;54709;43.614;1.576;2023-11-18T13:55:59;2.83;;;1.10;;
67904;SDS011;54709;43.614;1.576;2023-11-18T13:58:25;3.65;;;1.65;;
67904;SDS011;54709;43.614;1.576;2023-11-18T14:00:51;6.32;;;0.95;;
67904;SDS011;54709;43.614;1.576;2023-11-18T14:03:16;2.33;;;1.20;;
67904;SDS011;54709;43.614;1.576;2023-11-18T14:05:42;7.63;;;1.42;;
67904;SDS011;54709;43.614;1.576;2023-11-18T14:08:10;2.05;;;1.10;;
67904;SDS011;54709;43.614;1.576;2023-11-18T14:10:37;3.38;;;0.88;;
67904;SDS011;54709;43.614;1.576;2023-11-18T14:13:05;1.13;;;0.90;;
67904;SDS011;54709;43.614;1.576;2023-11-18T14:15:31;1.45;;;0.98;;
67904;SDS011;54709;43.614;1.576;2023-11-18T14:18:00;4.85;;;1.10;;
67904;SDS011;54709;43.614;1.576;2023-11-18T14:20:26;2.17;;;1.20;;
67904;SDS011;54709;43.614;1.576;2023-11-18T14:22:51;2.15;;;1.05;;
67904;SDS011;54709;43.614;1.576;2023-11-18T14:25:17;3.30;;;1.13;;
67904;SDS011;54709;43.614;1.576;2023-11-18T14:27:42;2.22;;;1.10;;
67904;SDS011;54709;43.614;1.576;2023-11-18T14:30:08;1.70;;;1.05;;
67904;SDS011;54709;43.614;1.576;2023-11-18T14:32:34;1.33;;;1.00;;
67904;SDS011;54709;43.614;1.576;2023-11-18T14:35:00;1.58;;;1.00;;
67904;SDS011;54709;43.614;1.576;2023-11-18T14:37:25;3.08;;;1.25;;
67904;SDS011;54709;43.614;1.576;2023-11-18T14:39:51;3.17;;;1.20;;
67904;SDS011;54709;43.614;1.576;2023-11-18T14:42:17;2.95;;;1.00;;
67904;SDS011;54709;43.614;1.576;2023-11-18T14:44:46;2.30;;;0.93;;
67904;SDS011;54709;43.614;1.576;2023-11-18T14:47:11;2.10;;;1.10;;
67904;SDS011;54709;43.614;1.576;2023-11-18T14:49:37;2.92;;;1.20;;
67904;SDS011;54709;43.614;1.576;2023-11-18T14:52:02;3.10;;;1.10;;
67904;SDS011;54709;43.614;1.576;2023-11-18T14:54:27;1.90;;;1.10;;
67904;SDS011;54709;43.614;1.576;2023-11-18T14:56:55;1.92;;;0.90;;
67904;SDS011;54709;43.614;1.576;2023-11-18T14:59:20;1.92;;;0.85;;
67904;SDS011;54709;43.614;1.576;2023-11-18T15:01:47;5.53;;;1.00;;
67904;SDS011;54709;43.614;1.576;2023-11-18T15:04:13;5.78;;;1.00;;
67904;SDS011;54709;43.614;1.576;2023-11-18T15:06:38;2.97;;;0.88;;
67904;SDS011;54709;43.614;1.576;2023-11-18T15:09:05;6.35;;;1.05;;
67904;SDS011;54709;43.614;1.576;2023-11-18T15:11:35;1.48;;;0.85;;
67904;SDS011;54709;43.614;1.576;2023-11-18T15:14:01;3.58;;;1.00;;
67904;SDS011;54709;43.614;1.576;2023-11-18T15:16:26;2.33;;;0.90;;
67904;SDS011;54709;43.614;1.576;2023-11-18T15:18:52;1.63;;;1.00;;
67904;SDS011;54709;43.614;1.576;2023-11-18T15:21:17;1.60;;;0.90;;
67904;SDS011;54709;43.614;1.576;2023-11-18T15:23:43;1.90;;;0.90;;